Needham Heights, Massachusetts
Current Conditions -  °F | °C
As of 10:53 AM on Friday 24 Oct 2014 (Local Time) from KOWD Reporting Station
Overcast Overcast  
Wind Chill: 51°   Ceiling: 1000
Heat Index: 51°   Visibility: 10mi
Dew Point: 47°   Wind: 10mph
Humidity: 86%   Direction: 320°NW
Pressure: 29.7"   Gusts: NA
Location:  42.2971°N, 71.227°W
Report Text: KOWD 241453Z 32009KT 10SM OVC010 11/08 A2970 RMK AO2 SLP058 T01060083 50002
Loading
Personal Weather Stations






























Interactive Weather Map
Tropical Storm Tracking
New forecast layout! Learn more

10-Day Weather Forecast

Advertisements
Track Severe Weather on mobile